Latest Weather Observations for West Roebuck

IDW60801

Issued at 4:34 pm WST Wednesday 22 February 2017 (issued every 30 minutes, with the page automatically refreshed every 10 minutes)

About weather observations | Map of weather stations | Latest weather observations for WA | Other Formats
Station Details ID: 003096 Name: WEST ROEBUCK Lat: -17.90 Lon: 122.31 Height: 32.0 m
Data from the previous 72 hours. | See also: Recent months at West Roebuck
Date/Time
WST
Temp
°C
App
Temp
°C
Dew
Point
°C
Rel
Hum
%
Delta-T
°C
Wind Press
QNH
hPa
Press
MSL
hPa
Rain since
9am
mm
Dir  Spd
km/h
Gust
km/h
Spd
kts
Gust
kts
22/04:30pm 31.5 - - - - WSW 17 24 9 13 - - 0.0
22/04:00pm 32.4 - - - - W 17 24 9 13 - - 0.0
22/03:30pm 32.9 - - - - WSW 17 24 9 13 - - 0.0
22/03:00pm 32.7 - - - - WSW 19 24 10 13 - - 0.0
22/02:30pm 32.8 - - - - WSW 15 22 8 12 - - 0.0
22/02:00pm 33.2 - - - - WSW 13 24 7 13 - - 0.0
22/01:30pm 32.7 - - - - WSW 13 20 7 11 - - 0.0
22/01:00pm 31.4 - - - - SW 15 22 8 12 - - 0.0
22/12:30pm 31.2 - - - - SW 13 20 7 11 - - 0.0
22/12:00pm 31.0 - - - - SSW 15 24 8 13 - - 0.0
22/11:30am 31.4 - - - - WSW 13 19 7 10 - - 0.0
22/11:00am 31.5 - - - - W 15 20 8 11 - - 0.0
22/10:30am 32.0 - - - - WSW 13 22 7 12 - - 0.0
22/10:00am 31.9 - - - - WSW 13 20 7 11 - - 0.0
22/09:30am 31.4 - - - - WSW 15 20 8 11 - - 0.0
22/09:00am 30.1 - - - - W 13 28 7 15 - - 0.0
22/08:30am 30.0 - - - - WSW 15 22 8 12 - - 0.0
22/08:00am 29.0 - - - - W 15 24 8 13 - - 0.0
22/07:30am 29.0 - - - - WSW 11 17 6 9 - - 0.0
22/07:00am 28.3 - - - - WSW 11 17 6 9 - - 0.0
22/06:30am 27.8 - - - - W 9 13 5 7 - - 0.0
22/06:00am 27.4 - - - - W 11 15 6 8 - - 0.0
22/05:30am 27.2 - - - - WNW 11 15 6 8 - - 0.0
22/05:00am 27.1 - - - - W 9 13 5 7 - - 0.0
22/04:30am 27.0 - - - - W 9 13 5 7 - - 0.0
22/04:00am 27.0 - - - - W 9 13 5 7 - - 0.0
22/03:30am 26.8 - - - - W 7 11 4 6 - - 0.0
22/03:00am 26.7 - - - - WNW 6 9 3 5 - - 0.0
22/02:30am 26.5 - - - - WNW 7 9 4 5 - - 0.0
22/02:00am 26.5 - - - - NW 7 9 4 5 - - 0.0
22/01:30am 26.5 - - - - NW 6 9 3 5 - - 0.0
22/01:00am 26.4 - - - - WNW 9 13 5 7 - - 0.0
22/12:30am 26.5 - - - - WNW 6 9 3 5 - - 0.0
22/12:00am 26.4 - - - - WNW 7 11 4 6 - - 0.0
 
Date/Time
WST
Temp
°C
App
Temp
°C
Dew
Point
°C
Rel
Hum
%
Delta-T
°C
Wind Press
QNH
hPa
Press
MSL
hPa
Rain since
9am
mm
Dir  Spd
km/h
Gust
km/h
Spd
kts
Gust
kts
21/11:30pm 26.4 - - - - WNW 7 11 4 6 - - 0.0
21/11:00pm 26.4 - - - - WNW 9 13 5 7 - - 0.0
21/10:30pm 26.2 - - - - NW 9 9 5 5 - - 0.0
21/10:00pm 26.5 - - - - NW 9 11 5 6 - - 0.0
21/09:30pm 26.8 - - - - WNW 7 9 4 5 - - 0.0
21/09:00pm 27.1 - - - - NW 9 11 5 6 - - 0.0
21/08:30pm 27.2 - - - - NW 9 11 5 6 - - 0.0
21/08:00pm 27.5 - - - - WNW 7 11 4 6 - - 0.0
21/07:30pm 27.9 - - - - WNW 11 17 6 9 - - 0.0
21/07:00pm 28.1 - - - - WNW 11 15 6 8 - - 0.0
21/06:30pm 28.6 - - - - NW 11 17 6 9 - - 0.0
21/06:00pm 29.2 - - - - WNW 15 20 8 11 - - 0.0
21/05:30pm 30.2 - - - - NW 19 26 10 14 - - 0.0
21/05:00pm 31.0 - - - - WNW 19 28 10 15 - - 0.0
21/04:30pm 31.0 - - - - W 19 28 10 15 - - 0.0
21/04:00pm 31.5 - - - - WNW 20 30 11 16 - - 0.0
21/03:30pm 32.0 - - - - WNW 19 28 10 15 - - 0.0
21/03:00pm 32.8 - - - - WNW 17 26 9 14 - - 0.0
21/02:30pm 32.8 - - - - W 17 26 9 14 - - 0.0
21/02:00pm 32.9 - - - - W 17 24 9 13 - - 0.0
21/01:30pm 32.6 - - - - W 17 28 9 15 - - 0.0
21/01:00pm 32.6 - - - - W 20 28 11 15 - - 0.0
21/12:30pm 33.4 - - - - W 17 24 9 13 - - 0.0
21/12:00pm 32.9 - - - - W 17 26 9 14 - - 0.0
21/11:30am 32.1 - - - - W 15 24 8 13 - - 0.0
21/11:00am 31.6 - - - - W 15 24 8 13 - - 0.0
21/10:30am 32.5 - - - - WNW 15 22 8 12 - - 0.0
21/10:00am 31.1 - - - - W 11 20 6 11 - - 0.0
21/09:30am 31.1 - - - - W 11 19 6 10 - - 0.0
21/09:00am 30.6 - - - - WNW 11 17 6 9 - - 0.0
21/08:30am 30.6 - - - - WSW 11 20 6 11 - - 0.0
21/08:00am 29.9 - - - - WNW 11 17 6 9 - - 0.0
21/07:30am 28.9 - - - - W 9 15 5 8 - - 0.0
21/07:00am 27.3 - - - - WNW 6 11 3 6 - - 0.0
21/06:30am 25.7 - - - - NNW 7 9 4 5 - - 0.0
21/06:00am 25.0 - - - - N 2 6 1 3 - - 0.0
21/05:30am 25.1 - - - - N 7 9 4 5 - - 0.0
21/05:00am 25.2 - - - - W 7 9 4 5 - - 0.0
21/04:30am 24.7 - - - - WNW 9 9 5 5 - - 0.0
21/04:00am 24.9 - - - - NW 7 7 4 4 - - 0.0
21/03:30am 25.1 - - - - W 6 7 3 4 - - 0.0
21/03:00am 24.9 - - - - NW 7 9 4 5 - - 0.0
21/02:30am 25.2 - - - - CALM 0 6 0 3 - - 0.0
21/02:00am 25.3 - - - - N 7 7 4 4 - - 0.0
21/01:30am 25.3 - - - - WNW 6 7 3 4 - - 0.0
21/01:00am 25.6 - - - - SW 9 11 5 6 - - 0.0
21/12:30am 25.6 - - - - WSW 6 7 3 4 - - 0.0
21/12:00am 25.7 - - - - W 7 9 4 5 - - 0.0
 
Date/Time
WST
Temp
°C
App
Temp
°C
Dew
Point
°C
Rel
Hum
%
Delta-T
°C
Wind Press
QNH
hPa
Press
MSL
hPa
Rain since
9am
mm
Dir  Spd
km/h
Gust
km/h
Spd
kts
Gust
kts
20/11:30pm 25.9 - - - - NNW 6 9 3 5 - - 0.0
20/11:00pm 26.0 - - - - N 6 7 3 4 - - 0.0
20/10:30pm 26.2 - - - - N 6 6 3 3 - - 0.0
20/10:00pm 26.3 - - - - WNW 2 6 1 3 - - 0.0
20/09:30pm 26.6 - - - - NW 7 9 4 5 - - 0.0
20/09:00pm 26.7 - - - - NNW 9 9 5 5 - - 0.0
20/08:30pm 26.9 - - - - CALM 0 0 0 0 - - 0.0
20/08:00pm 27.3 - - - - CALM 0 0 0 0 - - 0.0
20/07:30pm 27.7 - - - - SW 7 9 4 5 - - 0.0
20/07:00pm 28.1 - - - - WNW 9 15 5 8 - - 0.0
20/06:30pm 28.5 - - - - WNW 11 17 6 9 - - 0.0
20/06:00pm 29.1 - - - - WNW 15 22 8 12 - - 0.0
20/05:30pm 29.9 - - - - WNW 20 28 11 15 - - 0.0
20/05:00pm 30.4 - - - - WNW 22 32 12 17 - - 0.0
20/04:30pm 31.1 - - - - W 17 24 9 13 - - 0.0
20/04:00pm 31.6 - - - - W 17 28 9 15 - - 0.0
20/03:30pm 31.3 - - - - WSW 20 28 11 15 - - 0.0
20/03:00pm 31.5 - - - - W 19 30 10 16 - - 0.0
20/02:30pm 31.9 - - - - W 19 28 10 15 - - 0.0
20/02:00pm 32.2 - - - - W 19 28 10 15 - - 0.0
20/01:30pm 32.5 - - - - W 19 28 10 15 - - 0.0
20/01:00pm 32.3 - - - - WNW 15 22 8 12 - - 0.0
20/12:30pm 32.6 - - - - WNW 15 26 8 14 - - 0.0
20/12:00pm 32.7 - - - - W 15 20 8 11 - - 0.0
20/11:30am 32.5 - - - - W 13 22 7 12 - - 0.0
20/11:00am 32.4 - - - - W 13 20 7 11 - - 0.0
20/10:30am 31.7 - - - - WNW 13 20 7 11 - - 0.0
20/10:00am 30.6 - - - - W 13 22 7 12 - - 0.0
20/09:30am 30.5 - - - - W 13 19 7 10 - - 0.0
20/09:00am 30.3 - - - - WSW 13 20 7 11 - - 0.4
20/08:30am 30.1 - - - - W 15 20 8 11 - - 0.2
20/08:00am 29.4 - - - - W 11 17 6 9 - - 0.2
20/07:30am 27.5 - - - - N 6 9 3 5 - - 0.2
20/07:00am 26.2 - - - - N 2 9 1 5 - - 0.2
20/06:30am 24.8 - - - - ENE 7 9 4 5 - - 0.2
20/06:00am 24.1 - - - - WNW 6 7 3 4 - - 0.2
20/05:30am 23.9 - - - - WNW 7 9 4 5 - - 0.2
20/05:00am 24.1 - - - - NW 9 13 5 7 - - 0.2
20/04:30am 23.3 - - - - NW 11 13 6 7 - - 0.2
20/04:00am 23.1 - - - - NNW 9 11 5 6 - - 0.2
20/03:30am 23.2 - - - - NNW 11 17 6 9 - - 0.2
20/03:00am 23.4 - - - - NNW 15 22 8 12 - - 0.2
20/02:30am 23.5 - - - - N 13 20 7 11 - - 0.2
20/02:00am 24.4 - - - - NE 20 35 11 19 - - 0.0
20/01:30am 26.9 - - - - ENE 13 17 7 9 - - 0.0
20/01:00am 26.7 - - - - W 7 9 4 5 - - 0.0
20/12:30am 26.7 - - - - WNW 9 13 5 7 - - 0.0
20/12:00am 26.9 - - - - WNW 9 11 5 6 - - 0.0
 
Date/Time
WST
Temp
°C
App
Temp
°C
Dew
Point
°C
Rel
Hum
%
Delta-T
°C
Wind Press
QNH
hPa
Press
MSL
hPa
Rain since
9am
mm
Dir  Spd
km/h
Gust
km/h
Spd
kts
Gust
kts
19/11:30pm 27.0 - - - - WNW 7 9 4 5 - - 0.0
19/11:00pm 27.2 - - - - WNW 9 11 5 6 - - 0.0
19/10:30pm 27.2 - - - - NW 9 11 5 6 - - 0.0
19/10:00pm 27.5 - - - - NW 7 11 4 6 - - 0.0
19/09:30pm 27.7 - - - - WNW 7 9 4 5 - - 0.0
19/09:00pm 27.7 - - - - WNW 9 11 5 6 - - 0.0
19/08:30pm 27.9 - - - - W 11 15 6 8 - - 0.0
19/08:00pm 28.1 - - - - WNW 11 15 6 8 - - 0.0
19/07:30pm 28.2 - - - - W 11 19 6 10 - - 0.0
19/07:00pm 28.2 - - - - WNW 13 20 7 11 - - 0.0
19/06:30pm 28.5 - - - - WNW 17 26 9 14 - - 0.0
19/06:00pm 28.9 - - - - WNW 19 28 10 15 - - 0.0
19/05:30pm 29.4 - - - - WNW 19 28 10 15 - - 0.0
19/05:00pm 30.1 - - - - WNW 19 28 10 15 - - 0.0

Other Formats:

Comma delimited format used in spreadsheet applications
http://www.bom.gov.au/fwo/IDW60801/IDW60801.95204.axf

JavaScript Object Notation format (JSON) in row-major order
http://www.bom.gov.au/fwo/IDW60801/IDW60801.95204.json